»·PEaware :: N454FX KLAX-KSAN

N454FX :: KLAX-KSAN

FLIGHT INFORMATION

Flight Status: Arrived
Operator: Privately registered:
United States
More flights under this callsign
Pilot: Mike V. (15104)
Aircraft: CESSNA 172 SKYHAWK
(C172)
More flights by this aircraft type
Origin: KLAX Los Angeles Intl
United States
Destination: KSAN San Diego Intl-Lindbergh
United States
More flights between these airports :: More routes between these airports
Route: +
File this flight plan on PilotEdge
Remarks:
Altitude:
(Current/Filed)
3,000ft
Speed:
(Current/Filed)
0kts
Departed: 26-Nov-17 10:38 PM
Arrived: 26-Nov-17 11:39 PM
Distance/Time
Traveled:
95nm/1:00
Distance/Time
To Go:
Arrived

Flight Plot

Page will automatically refresh every two minutes.


Map Options




Map Legend


Flown Route
Filed Route
Departure Airport
Arrival Airport
Navaid (VOR, NDB)
Fix

Horizontal Profiles

Position Reports

Time Latitude Longitude Heading Altitude Ground
Speed
26-Nov-17 22:28 33.939192 -118.413585 89 119ft 0kts
26-Nov-17 22:29 33.939192 -118.413585 89 119ft 0kts
26-Nov-17 22:30 33.939192 -118.413585 89 119ft 0kts
26-Nov-17 22:31 33.939192 -118.413585 89 119ft 0kts
26-Nov-17 22:32 33.939192 -118.413585 89 119ft 0kts
26-Nov-17 22:33 33.939192 -118.413585 89 119ft 0kts
26-Nov-17 22:34 33.939192 -118.413585 89 119ft 0kts
26-Nov-17 22:35 33.939123 -118.413471 157 120ft 0kts
26-Nov-17 22:36 33.939010 -118.413343 138 120ft 4kts
26-Nov-17 22:37 33.938369 -118.412119 85 121ft 7kts
26-Nov-17 22:38 33.937910 -118.411482 155 121ft 12kts
26-Nov-17 22:39 33.938272 -118.404912 83 118ft 32kts
26-Nov-17 22:40 33.939464 -118.393295 82 101ft 35kts
26-Nov-17 22:41 33.940675 -118.381481 82 95ft 21kts
26-Nov-17 22:42 33.940657 -118.380550 128 95ft 0kts
26-Nov-17 22:43 33.939562 -118.382936 262 95ft 59kts
26-Nov-17 22:44 33.936208 -118.412510 260 764ft 107kts
26-Nov-17 22:45 33.929446 -118.447843 246 1638ft 93kts
26-Nov-17 22:46 33.912255 -118.474045 189 2249ft 112kts
26-Nov-17 22:47 33.879686 -118.472757 182 2499ft 129kts
26-Nov-17 22:48 33.845961 -118.475174 182 2499ft 118kts
26-Nov-17 22:49 33.813368 -118.476194 182 2499ft 117kts
26-Nov-17 22:50 33.780744 -118.477211 182 2499ft 117kts
26-Nov-17 22:51 33.748203 -118.478219 181 2500ft 117kts
26-Nov-17 22:52 33.715519 -118.479250 181 2500ft 117kts
26-Nov-17 22:53 33.681571 -118.477933 161 2467ft 138kts
26-Nov-17 22:54 33.650026 -118.460108 156 2809ft 125kts
26-Nov-17 22:55 33.619838 -118.443403 140 3293ft 114kts
26-Nov-17 22:56 33.595639 -118.420307 140 3938ft 112kts
26-Nov-17 22:57 33.570824 -118.394758 134 4305ft 120kts
26-Nov-17 22:58 33.545505 -118.367550 141 4524ft 124kts
26-Nov-17 22:59 33.511392 -118.350863 175 3242ft 152kts
26-Nov-17 23:00 33.475684 -118.347975 178 3304ft 127kts
26-Nov-17 23:01 33.456566 -118.328052 124 4055ft 102kts
26-Nov-17 23:02 33.433391 -118.300592 143 4220ft 123kts
26-Nov-17 23:03 33.406073 -118.273105 139 4166ft 131kts
26-Nov-17 23:04 33.378832 -118.246333 137 4149ft 124kts
26-Nov-17 23:05 33.353307 -118.218569 134 4145ft 123kts
26-Nov-17 23:06 33.336163 -118.183422 107 4149ft 123kts
26-Nov-17 23:07 33.334231 -118.142699 80 4149ft 123kts
26-Nov-17 23:08 33.345178 -118.103779 75 4150ft 123kts
26-Nov-17 23:09 33.347896 -118.062976 95 4150ft 124kts
26-Nov-17 23:10 33.338346 -118.023565 116 4150ft 124kts
26-Nov-17 23:11 33.317814 -117.990848 137 4150ft 124kts
26-Nov-17 23:12 33.288829 -117.968880 157 4150ft 124kts
26-Nov-17 23:13 33.255294 -117.960643 178 4150ft 124kts
26-Nov-17 23:14 33.221535 -117.967106 199 4150ft 124kts
26-Nov-17 23:15 33.191127 -117.985835 188 4142ft 124kts
26-Nov-17 23:16 33.163477 -117.963345 139 4150ft 123kts
26-Nov-17 23:17 33.137453 -117.936313 139 4149ft 124kts
26-Nov-17 23:18 33.111499 -117.909350 138 4149ft 124kts
26-Nov-17 23:19 33.085556 -117.882398 139 4149ft 124kts
26-Nov-17 23:20 33.059588 -117.855417 139 4149ft 124kts
26-Nov-17 23:21 33.033613 -117.826614 135 3915ft 128kts
26-Nov-17 23:22 33.013728 -117.790471 106 3552ft 132kts
26-Nov-17 23:23 33.009104 -117.747666 96 3281ft 129kts
26-Nov-17 23:24 33.019238 -117.706425 72 2931ft 132kts
26-Nov-17 23:25 33.028887 -117.664609 76 2739ft 118kts
26-Nov-17 23:26 33.035393 -117.625029 85 2705ft 126kts
26-Nov-17 23:27 33.037542 -117.582916 90 2586ft 122kts
26-Nov-17 23:28 33.035554 -117.542137 98 2522ft 127kts
26-Nov-17 23:29 33.027641 -117.511660 129 3192ft 88kts
26-Nov-17 23:30 33.019731 -117.484988 107 3785ft 103kts
26-Nov-17 23:31 33.001901 -117.460854 137 4476ft 96kts
26-Nov-17 23:32 32.981031 -117.433107 127 4502ft 125kts
26-Nov-17 23:33 32.960848 -117.397254 144 4092ft 130kts
26-Nov-17 23:34 32.931138 -117.376373 150 3975ft 120kts
26-Nov-17 23:35 32.901988 -117.356670 148 3751ft 119kts
26-Nov-17 23:36 32.875757 -117.333195 135 3524ft 120kts
26-Nov-17 23:37 32.852044 -117.305944 138 2793ft 118kts
26-Nov-17 23:38 32.827582 -117.285300 155 2473ft 104kts
26-Nov-17 23:39 32.799641 -117.274975 161 2120ft 110kts
26-Nov-17 23:40 32.773104 -117.268257 179 2029ft 104kts
26-Nov-17 23:41 32.752672 -117.257091 124 1594ft 80kts
26-Nov-17 23:42 32.744372 -117.233515 107 1035ft 78kts
26-Nov-17 23:43 32.738325 -117.208616 105 367ft 77kts
26-Nov-17 23:44 32.734035 -117.195158 180 16ft 0kts
26-Nov-17 23:45 32.734035 -117.195158 180 16ft 0kts
26-Nov-17 23:46 32.737064 -117.204163 106 24ft 0kts
26-Nov-17 23:47 32.737064 -117.204163 106 24ft 0kts
26-Nov-17 23:48 32.737064 -117.204163 106 24ft 0kts
26-Nov-17 23:49 32.737064 -117.204163 106 24ft 0kts
26-Nov-17 23:50 32.737064 -117.204163 106 24ft 0kts
26-Nov-17 23:51 32.737064 -117.204163 106 24ft 0kts
26-Nov-17 23:52 32.736526 -117.184981 354 32ft 0kts
26-Nov-17 23:53 32.736526 -117.184981 354 32ft 0kts
26-Nov-17 23:54 32.736526 -117.184981 354 32ft 0kts
26-Nov-17 23:55 32.736526 -117.184981 354 32ft 0kts
26-Nov-17 23:56 32.736526 -117.184981 354 32ft 0kts
26-Nov-17 23:57 32.736526 -117.184981 354 32ft 0kts
26-Nov-17 23:58 32.736526 -117.184981 354 32ft 0kts

Navigation Log

Ident Type
1. KLAX Airport
2. KSAN Airport